Time;durP1;ratioP1;P1;durP2;ratioP2;P2;SDS_P1;SDS_P2;PMS_P1;PMS_P2;Temp;Humidity;BMP_temperature;BMP_pressure;BME280_temperature;BME280_humidity;BME280_pressure;Samples;Min_cycle;Max_cycle;Signal;HPM_P1;HPM_P2
2021/08/21 00:00:51;;;;;;;12.15;6.60;;;21.40;78.80;;;;;;5012233;28;20045;-76
2021/08/21 00:03:17;;;;;;;10.68;6.70;;;21.40;78.90;;;;;;5014925;28;20061;-76
2021/08/21 00:05:42;;;;;;;10.13;6.53;;;21.40;79.10;;;;;;5014305;28;20044;-75
2021/08/21 00:08:08;;;;;;;10.18;6.60;;;21.40;79.20;;;;;;5006948;28;20034;-76
2021/08/21 00:10:35;;;;;;;10.20;6.70;;;21.40;79.40;;;;;;4998405;28;20117;-76
2021/08/21 00:13:01;;;;;;;15.20;6.93;;;21.40;79.50;;;;;;5004185;28;20042;-76
2021/08/21 00:15:27;;;;;;;11.73;7.30;;;21.40;79.50;;;;;;5008725;28;20025;-76
2021/08/21 00:17:53;;;;;;;11.98;6.72;;;21.30;79.60;;;;;;5007739;28;20048;-76
2021/08/21 00:20:19;;;;;;;11.38;6.75;;;21.30;79.60;;;;;;5007391;28;20489;-76
2021/08/21 00:22:45;;;;;;;12.20;7.15;;;21.30;79.60;;;;;;5006862;28;20030;-76
2021/08/21 00:25:12;;;;;;;12.40;7.97;;;21.30;79.60;;;;;;5010586;28;20053;-76
2021/08/21 00:27:38;;;;;;;11.93;7.35;;;21.30;79.50;;;;;;5006209;28;20125;-76
2021/08/21 00:30:04;;;;;;;13.20;6.85;;;21.30;79.50;;;;;;5014789;28;20041;-76
2021/08/21 00:32:31;;;;;;;19.75;7.30;;;21.30;79.60;;;;;;5008840;28;20030;-76
2021/08/21 00:34:57;;;;;;;16.35;6.88;;;21.30;79.60;;;;;;5006830;28;20497;-76
2021/08/21 00:37:24;;;;;;;12.75;6.90;;;21.30;79.70;;;;;;5008012;28;20045;-76
2021/08/21 00:39:49;;;;;;;11.50;7.57;;;21.20;79.60;;;;;;5015156;28;20025;-76
2021/08/21 00:42:18;;;;;;;12.23;7.68;;;21.20;79.80;;;;;;5009801;28;20089;-75
2021/08/21 00:44:44;;;;;;;11.30;6.47;;;21.20;80.10;;;;;;5006424;28;20030;-76
2021/08/21 00:47:18;;;;;;;13.68;7.47;;;21.20;80.20;;;;;;5013560;28;20031;-75
2021/08/21 00:49:49;;;;;;;14.55;7.55;;;21.20;80.50;;;;;;5014061;28;20033;-76
2021/08/21 00:52:21;;;;;;;14.15;6.75;;;21.20;80.60;;;;;;5010839;28;20022;-75
2021/08/21 00:54:48;;;;;;;11.23;6.60;;;21.20;80.80;;;;;;4997587;28;20044;-75
2021/08/21 00:57:16;;;;;;;13.40;6.88;;;21.10;80.80;;;;;;5024679;28;20104;-75
2021/08/21 00:59:47;;;;;;;14.40;6.70;;;21.10;81.00;;;;;;5009944;28;20538;-75
2021/08/21 01:02:14;;;;;;;9.73;6.97;;;21.10;81.10;;;;;;4997136;28;20022;-75
2021/08/21 01:04:44;;;;;;;9.93;6.63;;;21.10;81.20;;;;;;5014050;28;20036;-75
2021/08/21 01:07:12;;;;;;;16.27;7.18;;;21.10;81.20;;;;;;5014079;28;20480;-75
2021/08/21 01:09:41;;;;;;;12.35;6.28;;;21.10;81.30;;;;;;5025791;28;20421;-75
2021/08/21 01:12:16;;;;;;;11.63;7.30;;;21.10;81.40;;;;;;5029750;28;20030;-75
2021/08/21 01:14:43;;;;;;;15.63;6.85;;;21.10;81.40;;;;;;5015013;28;20120;-75
2021/08/21 01:17:13;;;;;;;12.00;7.40;;;21.10;81.50;;;;;;5030448;28;20397;-75
2021/08/21 01:19:43;;;;;;;13.13;7.40;;;21.10;81.70;;;;;;5009496;28;20035;-76
2021/08/21 01:22:15;;;;;;;11.40;6.90;;;21.10;81.80;;;;;;5013329;28;20120;-76
2021/08/21 01:24:46;;;;;;;14.05;7.28;;;21.10;81.90;;;;;;4999990;28;20141;-75
2021/08/21 01:27:20;;;;;;;11.05;7.03;;;21.10;81.90;;;;;;5012151;28;20025;-75
2021/08/21 01:30:03;;;;;;;12.23;7.18;;;21.00;81.90;;;;;;4998965;28;20065;-75
2021/08/21 01:32:49;;;;;;;10.23;6.55;;;21.10;82.00;;;;;;5008943;28;20030;-75
2021/08/21 01:35:19;;;;;;;13.05;7.43;;;21.00;81.90;;;;;;5012862;28;20080;-75
2021/08/21 01:37:45;;;;;;;11.73;7.55;;;21.10;82.10;;;;;;5011606;28;20037;-75
2021/08/21 01:40:29;;;;;;;14.15;7.60;;;21.00;82.20;;;;;;5004234;28;20048;-75
2021/08/21 01:42:57;;;;;;;13.57;8.85;;;21.00;82.20;;;;;;5011890;28;20075;-75
2021/08/21 01:45:23;;;;;;;13.50;7.65;;;21.00;82.40;;;;;;5025232;28;20018;-75
2021/08/21 01:47:49;;;;;;;12.80;7.88;;;21.00;82.50;;;;;;5017008;28;20124;-75
2021/08/21 01:50:19;;;;;;;12.73;8.57;;;21.00;82.60;;;;;;5016110;28;20069;-75
2021/08/21 01:52:48;;;;;;;15.38;8.80;;;21.00;82.70;;;;;;5012076;28;20030;-75
2021/08/21 01:55:40;;;;;;;14.77;9.32;;;21.00;82.70;;;;;;5006987;28;20496;-75
2021/08/21 01:58:22;;;;;;;13.30;8.38;;;21.00;82.80;;;;;;5000721;28;20081;-75
2021/08/21 02:01:14;;;;;;;18.02;8.48;;;21.00;82.80;;;;;;5011874;28;20037;-75
2021/08/21 02:04:00;;;;;;;14.00;8.68;;;21.00;82.80;;;;;;5008446;28;20046;-76
2021/08/21 02:06:28;;;;;;;13.63;8.02;;;20.90;82.80;;;;;;5023594;28;20049;-75
2021/08/21 02:08:54;;;;;;;13.85;8.57;;;21.00;83.00;;;;;;5011568;28;20076;-75
2021/08/21 02:11:20;;;;;;;12.68;8.32;;;20.90;82.90;;;;;;5013534;28;20030;-75
2021/08/21 02:13:45;;;;;;;14.65;8.65;;;20.90;83.00;;;;;;5010179;28;20033;-75
2021/08/21 02:16:11;;;;;;;13.60;8.82;;;21.00;83.10;;;;;;5008233;28;20026;-75
2021/08/21 02:18:37;;;;;;;18.35;9.45;;;20.90;83.10;;;;;;5018897;28;20041;-75
2021/08/21 02:21:19;;;;;;;14.65;9.07;;;21.00;83.20;;;;;;5011517;28;20030;-75
2021/08/21 02:23:46;;;;;;;14.00;9.05;;;20.90;83.20;;;;;;5018449;28;20030;-75
2021/08/21 02:26:13;;;;;;;13.95;8.85;;;20.90;83.10;;;;;;5024110;28;20056;-75
2021/08/21 02:28:43;;;;;;;13.52;9.43;;;21.00;83.30;;;;;;5027675;28;20500;-75
2021/08/21 02:31:10;;;;;;;18.15;8.80;;;20.90;83.90;;;;;;5012520;28;20026;-75
2021/08/21 02:33:36;;;;;;;18.63;9.27;;;20.90;83.30;;;;;;4998145;28;20030;-75
2021/08/21 02:36:03;;;;;;;15.00;8.57;;;20.90;83.40;;;;;;5003797;28;20022;-76
2021/08/21 02:38:28;;;;;;;14.50;9.02;;;21.00;83.40;;;;;;5009911;28;20069;-75
2021/08/21 02:40:55;;;;;;;23.48;8.90;;;20.90;83.40;;;;;;5000400;28;20026;-75
2021/08/21 02:43:21;;;;;;;19.90;8.98;;;20.90;83.50;;;;;;5024634;28;20528;-75
2021/08/21 02:45:48;;;;;;;21.05;10.05;;;20.90;83.50;;;;;;5011950;28;20473;-75
2021/08/21 02:48:13;;;;;;;16.08;9.45;;;20.90;83.60;;;;;;5010618;28;20057;-75
2021/08/21 02:50:39;;;;;;;16.13;9.55;;;20.90;83.70;;;;;;5010274;28;20026;-75
2021/08/21 02:53:05;;;;;;;15.32;9.13;;;20.90;83.70;;;;;;5011206;28;20038;-75
2021/08/21 02:55:34;;;;;;;16.48;9.68;;;20.90;83.80;;;;;;5005276;28;20018;-75
2021/08/21 02:58:00;;;;;;;15.35;9.88;;;20.90;83.90;;;;;;5012466;28;20034;-75
2021/08/21 03:00:33;;;;;;;;;;;20.90;83.90;;;;;;5009604;28;20421;-75
2021/08/21 03:03:03;;;;;;;18.10;9.73;;;20.90;83.60;;;;;;5016725;28;20277;-75
2021/08/21 03:05:30;;;;;;;17.15;9.90;;;20.80;83.60;;;;;;5015492;28;20525;-75
2021/08/21 03:07:57;;;;;;;17.20;9.48;;;20.80;83.90;;;;;;5016552;28;20022;-75
2021/08/21 03:10:23;;;;;;;17.70;9.65;;;20.80;84.00;;;;;;5018843;28;20104;-75
2021/08/21 03:13:07;;;;;;;16.63;9.70;;;20.80;84.00;;;;;;5005703;28;20076;-75
2021/08/21 03:15:33;;;;;;;15.60;9.70;;;20.80;84.00;;;;;;5006952;28;20539;-75
2021/08/21 03:18:00;;;;;;;19.08;10.40;;;20.80;84.10;;;;;;5006585;28;20493;-76
2021/08/21 03:20:27;;;;;;;15.20;9.02;;;20.80;84.20;;;;;;5008489;28;20030;-75
2021/08/21 03:22:53;;;;;;;17.73;9.75;;;20.80;84.30;;;;;;5029017;28;20595;-75
2021/08/21 03:25:23;;;;;;;17.75;9.93;;;20.80;84.30;;;;;;5017685;28;20490;-76
2021/08/21 03:27:50;;;;;;;18.70;10.45;;;20.80;84.40;;;;;;5015927;28;20087;-75
2021/08/21 03:30:17;;;;;;;17.33;10.73;;;20.80;84.40;;;;;;5032657;28;20022;-75
2021/08/21 03:32:43;;;;;;;16.35;10.07;;;20.80;84.40;;;;;;5004090;28;20030;-75
2021/08/21 03:35:10;;;;;;;15.85;10.30;;;20.70;84.40;;;;;;5011933;28;20033;-75
2021/08/21 03:37:37;;;;;;;16.08;11.02;;;20.70;84.40;;;;;;5023147;28;20555;-75
2021/08/21 03:40:06;;;;;;;18.10;10.63;;;20.70;84.40;;;;;;5014630;28;20474;-76
2021/08/21 03:42:33;;;;;;;19.48;11.05;;;20.70;84.40;;;;;;5017535;28;20030;-76
2021/08/21 03:45:07;;;;;;;17.95;11.20;;;20.80;84.50;;;;;;5016083;28;20032;-75
2021/08/21 03:47:33;;;;;;;24.88;11.00;;;20.70;84.40;;;;;;5017089;28;20036;-76
2021/08/21 03:49:58;;;;;;;16.30;10.65;;;20.70;84.40;;;;;;5018414;28;20022;-76
2021/08/21 03:52:25;;;;;;;18.40;11.80;;;20.70;84.40;;;;;;5014995;28;20084;-75
2021/08/21 03:54:54;;;;;;;18.25;11.23;;;20.60;84.40;;;;;;5017624;28;20030;-76
2021/08/21 03:57:20;;;;;;;18.30;11.13;;;20.70;84.50;;;;;;5014979;28;20033;-76
2021/08/21 03:59:46;;;;;;;21.85;12.52;;;20.70;84.40;;;;;;5032206;28;20030;-76
2021/08/21 04:02:12;;;;;;;20.38;11.45;;;20.60;84.40;;;;;;5023597;28;20023;-74
2021/08/21 04:04:39;;;;;;;20.20;10.95;;;20.70;84.50;;;;;;5030967;28;20519;-75
2021/08/21 04:07:08;;;;;;;23.30;12.05;;;20.70;84.60;;;;;;5011571;28;20098;-75
2021/08/21 04:09:34;;;;;;;19.35;11.80;;;20.60;84.70;;;;;;5009715;28;20485;-75
2021/08/21 04:12:01;;;;;;;22.70;12.48;;;20.60;84.80;;;;;;5013240;28;20026;-75
2021/08/21 04:14:30;;;;;;;20.58;11.68;;;20.60;85.00;;;;;;5007109;28;20018;-75
2021/08/21 04:16:56;;;;;;;17.35;11.75;;;20.60;84.90;;;;;;5021791;28;20439;-75
2021/08/21 04:19:22;;;;;;;21.75;11.80;;;20.60;85.00;;;;;;5007748;28;20486;-75
2021/08/21 04:21:51;;;;;;;18.80;11.93;;;20.60;85.00;;;;;;5013646;28;20087;-75
2021/08/21 04:24:26;;;;;;;20.25;11.75;;;20.60;84.90;;;;;;5012149;28;20516;-75
2021/08/21 04:26:58;;;;;;;16.60;12.00;;;20.60;84.90;;;;;;5017020;28;20485;-75
2021/08/21 04:29:24;;;;;;;22.17;12.45;;;20.60;85.10;;;;;;5013680;28;20164;-75
2021/08/21 04:31:51;;;;;;;19.48;10.95;;;20.50;85.10;;;;;;5000018;28;20061;-75
2021/08/21 04:34:17;;;;;;;22.55;13.15;;;20.60;85.30;;;;;;5012941;28;20038;-75
2021/08/21 04:36:44;;;;;;;20.88;12.20;;;20.60;85.40;;;;;;5010451;28;20022;-75
2021/08/21 04:39:14;;;;;;;21.83;12.80;;;20.50;85.50;;;;;;5017181;28;20042;-75
2021/08/21 04:41:40;;;;;;;19.45;11.52;;;20.60;85.60;;;;;;5026311;28;20026;-75
2021/08/21 04:44:05;;;;;;;18.75;11.13;;;20.50;85.70;;;;;;5007687;28;20041;-75
2021/08/21 04:46:34;;;;;;;23.73;12.05;;;20.50;85.70;;;;;;5004957;28;20113;-75
2021/08/21 04:49:01;;;;;;;23.83;12.52;;;20.50;85.80;;;;;;5028817;28;20022;-75
2021/08/21 04:51:27;;;;;;;20.80;12.20;;;20.50;85.80;;;;;;5002186;28;20130;-75
2021/08/21 04:53:53;;;;;;;21.50;12.10;;;20.50;85.90;;;;;;5027462;28;20448;-75
2021/08/21 04:56:19;;;;;;;19.75;12.95;;;20.50;86.00;;;;;;5013346;28;20137;-75
2021/08/21 04:59:03;;;;;;;17.60;11.15;;;20.50;86.00;;;;;;5009621;28;20146;-75
2021/08/21 05:01:28;;;;;;;22.67;11.73;;;20.50;86.00;;;;;;5020071;28;20500;-75
2021/08/21 05:03:55;;;;;;;20.23;11.77;;;20.50;85.90;;;;;;5004072;28;20026;-75
2021/08/21 05:06:21;;;;;;;18.73;11.52;;;20.50;85.90;;;;;;5010192;28;20600;-75
2021/08/21 05:08:46;;;;;;;22.33;12.13;;;20.60;86.00;;;;;;5004726;28;20117;-76
2021/08/21 05:11:13;;;;;;;23.92;12.32;;;20.60;86.20;;;;;;5028362;28;20033;-76
2021/08/21 05:13:39;;;;;;;21.70;12.00;;;20.50;86.20;;;;;;5004837;28;20030;-76
2021/08/21 05:16:08;;;;;;;30.55;12.18;;;20.50;86.20;;;;;;5011416;28;20034;-76
2021/08/21 05:19:01;;;;;;;21.90;12.02;;;20.50;86.30;;;;;;4998851;28;20089;-76
2021/08/21 05:21:36;;;;;;;21.45;11.80;;;20.50;86.40;;;;;;5016489;28;20022;-76
2021/08/21 05:24:03;;;;;;;19.30;12.32;;;20.50;86.50;;;;;;5012319;28;20385;-75
2021/08/21 05:26:29;;;;;;;18.50;12.20;;;20.50;86.50;;;;;;5010651;28;20022;-76
2021/08/21 05:28:55;;;;;;;17.10;11.88;;;20.50;86.60;;;;;;5009998;28;20028;-76
2021/08/21 05:31:24;;;;;;;20.00;13.10;;;20.50;86.70;;;;;;5011479;28;20524;-76
2021/08/21 05:33:50;;;;;;;21.63;12.63;;;20.50;86.70;;;;;;5013803;28;20041;-76
2021/08/21 05:36:16;;;;;;;17.70;11.98;;;20.50;86.70;;;;;;5011831;28;20037;-75
2021/08/21 05:38:42;;;;;;;21.63;12.85;;;20.50;86.80;;;;;;5010204;28;20061;-75
2021/08/21 05:41:08;;;;;;;22.35;11.88;;;20.50;86.80;;;;;;5012984;28;20062;-75
2021/08/21 05:43:39;;;;;;;24.45;12.15;;;20.50;86.80;;;;;;5010776;28;20042;-75
2021/08/21 05:46:05;;;;;;;28.85;12.80;;;20.50;86.90;;;;;;5009744;28;20037;-75
2021/08/21 05:48:31;;;;;;;20.10;12.18;;;20.50;86.80;;;;;;5010252;28;20033;-76
2021/08/21 05:50:56;;;;;;;20.25;12.82;;;20.50;86.90;;;;;;5010628;28;20026;-75
2021/08/21 05:53:22;;;;;;;21.40;12.63;;;20.60;87.00;;;;;;5010981;28;20042;-75
2021/08/21 05:55:48;;;;;;;24.23;12.88;;;20.60;87.30;;;;;;5012143;28;20034;-75
2021/08/21 05:58:16;;;;;;;27.83;12.52;;;20.60;87.50;;;;;;5010874;28;20056;-75
2021/08/21 06:00:46;;;;;;;18.05;12.27;;;20.60;87.50;;;;;;5010602;28;20022;-76
2021/08/21 06:03:12;;;;;;;20.27;12.80;;;20.60;87.40;;;;;;5013024;28;20038;-75
2021/08/21 06:05:43;;;;;;;22.90;12.05;;;20.60;87.30;;;;;;5010710;28;20084;-76
2021/08/21 06:08:10;;;;;;;20.08;11.82;;;20.60;87.40;;;;;;5011664;28;20037;-75
2021/08/21 06:10:41;;;;;;;18.42;11.88;;;20.60;87.20;;;;;;5018028;28;20136;-76
2021/08/21 06:13:07;;;;;;;19.48;11.70;;;20.60;87.00;;;;;;5025443;28;20026;-75
2021/08/21 06:15:33;;;;;;;24.95;12.65;;;20.60;87.00;;;;;;5006602;28;20525;-76
2021/08/21 06:17:58;;;;;;;17.75;11.57;;;20.70;87.10;;;;;;5000945;28;20029;-75
2021/08/21 06:20:25;;;;;;;26.58;12.60;;;20.60;87.10;;;;;;5012820;28;20061;-75
2021/08/21 06:22:50;;;;;;;20.35;12.20;;;20.70;87.20;;;;;;5011714;28;20116;-76
2021/08/21 06:25:16;;;;;;;19.92;12.50;;;20.70;87.30;;;;;;5010997;28;20118;-76
2021/08/21 06:27:42;;;;;;;19.05;11.98;;;20.70;87.40;;;;;;5011347;28;20041;-76
2021/08/21 06:30:08;;;;;;;24.85;13.20;;;20.70;87.10;;;;;;4995987;28;20076;-76
2021/08/21 06:32:34;;;;;;;20.50;12.27;;;20.70;87.00;;;;;;4997401;28;20068;-75
2021/08/21 06:35:00;;;;;;;19.02;11.25;;;20.70;87.00;;;;;;5000751;28;20366;-76
2021/08/21 06:37:25;;;;;;;18.23;10.60;;;20.60;86.70;;;;;;5011591;28;20053;-75
2021/08/21 06:39:51;;;;;;;17.60;10.73;;;20.70;87.00;;;;;;5009761;28;20034;-76
2021/08/21 06:42:16;;;;;;;17.48;9.70;;;20.70;86.90;;;;;;5012197;28;20123;-76
2021/08/21 06:45:00;;;;;;;20.08;10.30;;;20.60;86.80;;;;;;4997641;28;20115;-76
2021/08/21 06:47:25;;;;;;;15.85;9.93;;;20.70;86.80;;;;;;5007141;28;20134;-76
2021/08/21 06:49:51;;;;;;;18.60;9.77;;;20.70;86.50;;;;;;5005990;28;20057;-75
2021/08/21 06:52:17;;;;;;;15.07;9.45;;;20.70;86.20;;;;;;5008884;28;20431;-75
2021/08/21 06:54:42;;;;;;;15.95;9.57;;;20.70;86.20;;;;;;5002201;28;20030;-75
2021/08/21 06:57:08;;;;;;;16.40;10.00;;;20.70;86.00;;;;;;5010395;28;20539;-75
2021/08/21 06:59:34;;;;;;;17.80;9.77;;;20.70;85.70;;;;;;5009831;28;20057;-74
2021/08/21 07:02:02;;;;;;;17.65;10.77;;;20.70;85.70;;;;;;5000751;28;20477;-75
2021/08/21 07:04:28;;;;;;;14.85;9.85;;;20.70;85.90;;;;;;4994106;28;20039;-75
2021/08/21 07:06:54;;;;;;;15.45;9.77;;;20.70;85.90;;;;;;5005501;28;20026;-75
2021/08/21 07:09:19;;;;;;;20.08;11.38;;;20.70;86.00;;;;;;4996015;28;20542;-75
2021/08/21 07:11:45;;;;;;;20.88;11.82;;;20.70;86.10;;;;;;4996169;28;20026;-73
2021/08/21 07:14:11;;;;;;;20.92;12.48;;;20.80;86.40;;;;;;5000009;28;20394;-73
2021/08/21 07:16:37;;;;;;;14.95;10.35;;;20.80;86.60;;;;;;5013297;28;20527;-74
2021/08/21 07:19:02;;;;;;;24.92;11.32;;;20.80;86.40;;;;;;5018317;28;20486;-73
2021/08/21 07:21:28;;;;;;;20.25;10.68;;;20.80;86.40;;;;;;5010175;28;20038;-76
2021/08/21 07:23:54;;;;;;;21.17;12.38;;;20.90;86.70;;;;;;5012007;28;20038;-76
2021/08/21 07:26:20;;;;;;;19.38;12.32;;;20.80;86.60;;;;;;5008830;28;20120;-76
2021/08/21 07:28:46;;;;;;;23.90;12.90;;;20.90;86.70;;;;;;5011852;28;20117;-76
2021/08/21 07:31:11;;;;;;;21.08;12.63;;;21.00;86.60;;;;;;5011389;28;20065;-76
2021/08/21 07:33:37;;;;;;;21.95;13.35;;;21.00;86.70;;;;;;4998331;28;20026;-75
2021/08/21 07:36:03;;;;;;;25.35;12.13;;;21.00;86.80;;;;;;5010387;28;20033;-78
2021/08/21 07:38:28;;;;;;;29.20;14.32;;;21.00;86.90;;;;;;5009862;28;20038;-78
2021/08/21 07:40:54;;;;;;;20.73;12.50;;;21.00;87.10;;;;;;5012053;28;20122;-78
2021/08/21 07:43:20;;;;;;;21.25;12.35;;;21.10;86.70;;;;;;5009957;28;20042;-78
2021/08/21 07:45:46;;;;;;;21.27;12.82;;;21.10;86.60;;;;;;5011544;28;20100;-78
2021/08/21 07:48:15;;;;;;;21.60;12.45;;;21.20;86.60;;;;;;5011500;28;20104;-78
2021/08/21 07:50:42;;;;;;;22.33;13.43;;;21.20;86.60;;;;;;5013835;28;20033;-77
2021/08/21 07:53:08;;;;;;;25.45;13.60;;;21.20;86.40;;;;;;5013620;28;20027;-77
2021/08/21 07:55:33;;;;;;;23.60;14.15;;;21.20;86.20;;;;;;5012867;28;20393;-78
2021/08/21 07:57:59;;;;;;;23.77;13.40;;;21.30;86.40;;;;;;5008703;28;20403;-78
2021/08/21 08:00:25;;;;;;;23.98;14.45;;;21.30;86.30;;;;;;5006410;28;20037;-77
2021/08/21 08:02:50;;;;;;;24.73;15.38;;;21.30;86.50;;;;;;5004556;28;20130;-77
2021/08/21 08:05:16;;;;;;;26.92;15.85;;;21.30;86.60;;;;;;5004203;28;20030;-77
2021/08/21 08:07:42;;;;;;;23.83;13.93;;;21.40;86.60;;;;;;5005254;28;20095;-78
2021/08/21 08:10:08;;;;;;;24.30;13.82;;;21.40;86.50;;;;;;5000138;28;20052;-78
2021/08/21 08:12:37;;;;;;;20.08;12.88;;;21.40;86.60;;;;;;4996969;28;20032;-77
2021/08/21 08:15:03;;;;;;;27.75;13.70;;;21.50;86.90;;;;;;5005523;28;20069;-78
2021/08/21 08:17:29;;;;;;;26.30;14.20;;;21.50;87.10;;;;;;5003765;28;20137;-77
2021/08/21 08:19:55;;;;;;;24.85;14.52;;;21.50;86.40;;;;;;5001338;28;20117;-78
2021/08/21 08:22:21;;;;;;;24.55;15.60;;;21.60;86.70;;;;;;5003780;28;20113;-78
2021/08/21 08:24:47;;;;;;;24.15;14.65;;;21.60;86.30;;;;;;5005614;28;20496;-77
2021/08/21 08:27:15;;;;;;;23.10;13.88;;;21.60;86.20;;;;;;5007445;28;20470;-78
2021/08/21 08:29:41;;;;;;;21.98;13.65;;;21.70;85.20;;;;;;5001194;28;20552;-80
2021/08/21 08:32:07;;;;;;;21.60;14.30;;;21.60;84.70;;;;;;5002351;28;20038;-79
2021/08/21 08:34:32;;;;;;;26.90;16.58;;;21.70;84.80;;;;;;5004544;28;20454;-77
2021/08/21 08:36:58;;;;;;;30.00;17.92;;;21.70;85.00;;;;;;4998288;28;20034;-78
2021/08/21 08:39:24;;;;;;;20.17;12.40;;;21.80;85.40;;;;;;4999209;28;20382;-83
2021/08/21 08:41:50;;;;;;;25.10;13.20;;;21.80;85.00;;;;;;5002133;28;20033;-77
2021/08/21 08:44:18;;;;;;;25.05;15.75;;;21.80;84.50;;;;;;5003700;28;20038;-77
2021/08/21 08:46:44;;;;;;;26.80;17.08;;;21.80;84.60;;;;;;5001614;28;20095;-77
2021/08/21 08:49:10;;;;;;;23.98;14.13;;;21.90;85.50;;;;;;4996959;28;20061;-78
2021/08/21 08:51:36;;;;;;;25.00;16.08;;;22.00;85.30;;;;;;5008699;28;20049;-77
2021/08/21 08:54:02;;;;;;;32.33;15.48;;;22.00;85.60;;;;;;4996953;28;20026;-77
2021/08/21 08:56:28;;;;;;;28.40;17.75;;;22.00;85.60;;;;;;5002643;28;20117;-78
2021/08/21 08:58:53;;;;;;;25.35;14.32;;;22.10;85.50;;;;;;5012296;28;20548;-75
2021/08/21 09:01:20;;;;;;;24.30;15.40;;;22.10;85.50;;;;;;5003007;28;20029;-82
2021/08/21 09:03:46;;;;;;;24.88;14.90;;;22.20;84.50;;;;;;4998177;28;20034;-78
2021/08/21 09:06:13;;;;;;;25.77;16.27;;;22.10;84.40;;;;;;5011128;28;20107;-75
2021/08/21 09:08:40;;;;;;;23.63;14.20;;;22.10;84.70;;;;;;5008317;28;20509;-77
2021/08/21 09:11:24;;;;;;;24.30;15.05;;;22.10;84.70;;;;;;5010997;28;20049;-82
2021/08/21 09:13:50;;;;;;;26.35;16.10;;;22.20;84.80;;;;;;5008977;28;20531;-85
2021/08/21 09:16:26;;;;;;;26.23;16.15;;;22.20;84.40;;;;;;5000864;28;20485;-86
2021/08/21 09:19:05;;;;;;;28.60;16.52;;;22.20;84.40;;;;;;4996740;28;20054;-79
2021/08/21 09:21:31;;;;;;;23.80;14.80;;;22.30;84.80;;;;;;5011101;28;20469;-84
2021/08/21 09:23:57;;;;;;;24.55;14.27;;;22.40;84.50;;;;;;5004389;28;20041;-87
2021/08/21 09:26:41;;;;;;;24.35;15.30;;;22.40;84.40;;;;;;5010747;28;20045;-87
2021/08/21 09:29:06;;;;;;;28.70;15.23;;;22.50;84.50;;;;;;5013539;28;20061;-85
2021/08/21 09:31:33;;;;;;;21.63;13.07;;;22.50;84.00;;;;;;5011913;28;20030;-74
2021/08/21 09:34:06;;;;;;;24.63;14.23;;;22.50;83.80;;;;;;5002957;28;20091;-84
2021/08/21 09:36:33;;;;;;;25.10;14.52;;;22.50;83.80;;;;;;5000065;28;20124;-78
2021/08/21 09:39:01;;;;;;;19.27;11.75;;;22.60;84.20;;;;;;5013306;28;20042;-76
2021/08/21 09:41:27;;;;;;;23.25;11.80;;;22.60;83.40;;;;;;5013152;28;20034;-74
2021/08/21 09:44:03;;;;;;;21.65;12.20;;;22.60;82.60;;;;;;5009964;28;20382;-77
2021/08/21 09:46:29;;;;;;;20.40;12.85;;;22.60;82.60;;;;;;5001958;28;20045;-83
2021/08/21 09:49:06;;;;;;;21.35;12.02;;;22.60;82.70;;;;;;5011564;28;20025;-85
2021/08/21 09:51:43;;;;;;;18.75;11.27;;;22.70;83.00;;;;;;5013347;28;20034;-88
2021/08/21 09:54:11;;;;;;;19.20;10.35;;;22.70;82.90;;;;;;4996000;28;20034;-84
2021/08/21 09:56:40;;;;;;;16.33;10.05;;;22.80;82.20;;;;;;5005632;28;20034;-87
2021/08/21 09:59:06;;;;;;;18.50;12.55;;;22.80;82.00;;;;;;4998761;28;20042;-86
2021/08/21 10:01:33;;;;;;;16.00;10.20;;;22.80;82.00;;;;;;5004600;28;20145;-87
2021/08/21 10:03:59;;;;;;;20.50;12.05;;;22.90;81.90;;;;;;5009657;28;20489;-87
2021/08/21 10:06:25;;;;;;;19.92;11.00;;;22.90;81.40;;;;;;5012615;28;20092;-82
2021/08/21 10:08:56;;;;;;;26.67;11.82;;;22.90;81.40;;;;;;5001325;28;20469;-84
2021/08/21 10:11:21;;;;;;;18.30;11.35;;;23.00;81.80;;;;;;5009892;28;20045;-89
2021/08/21 10:13:48;;;;;;;14.38;9.77;;;23.00;81.80;;;;;;5011137;28;20482;-88
2021/08/21 10:16:14;;;;;;;15.77;9.43;;;23.10;81.50;;;;;;5006489;28;20705;-86
2021/08/21 10:18:42;;;;;;;21.77;13.05;;;23.10;81.20;;;;;;5001429;28;20037;-88
2021/08/21 10:21:08;;;;;;;15.88;10.65;;;23.10;80.90;;;;;;5003778;28;20104;-74
2021/08/21 10:23:34;;;;;;;18.23;10.07;;;23.10;81.20;;;;;;5009758;28;20037;-86
2021/08/21 10:26:31;;;;;;;27.30;11.63;;;23.10;81.10;;;;;;5007729;28;20041;-89
2021/08/21 10:28:58;;;;;;;20.85;10.60;;;23.20;81.50;;;;;;5008766;28;20030;-85
2021/08/21 10:31:47;;;;;;;15.57;8.73;;;23.20;81.40;;;;;;5007039;28;20038;-79
2021/08/21 10:34:15;;;;;;;14.82;7.68;;;23.30;81.20;;;;;;4994689;28;20034;-86
2021/08/21 10:36:48;;;;;;;13.07;8.15;;;23.40;80.60;;;;;;5001252;28;20037;-79
2021/08/21 10:39:17;;;;;;;14.10;8.02;;;23.50;79.60;;;;;;5004022;28;20486;-89
2021/08/21 10:41:42;;;;;;;15.30;7.35;;;23.50;79.30;;;;;;5006304;28;20080;-88
2021/08/21 10:44:08;;;;;;;15.48;8.50;;;23.50;79.70;;;;;;5003546;28;20042;-86
2021/08/21 10:46:34;;;;;;;12.18;7.05;;;23.60;79.40;;;;;;4997923;28;20025;-88
2021/08/21 10:49:00;;;;;;;10.50;5.72;;;23.60;79.70;;;;;;5005851;28;20370;-87
2021/08/21 10:51:39;;;;;;;9.77;5.50;;;23.60;79.40;;;;;;5005827;28;20048;-87
2021/08/21 10:54:27;;;;;;;17.73;9.20;;;23.70;79.10;;;;;;5007262;28;20034;-87
2021/08/21 10:57:33;;;;;;;10.70;6.05;;;23.70;79.40;;;;;;5008062;28;20038;-88
2021/08/21 10:59:59;;;;;;;13.38;8.25;;;23.70;79.30;;;;;;5001387;28;20549;-88
2021/08/21 11:02:33;;;;;;;16.35;9.05;;;23.80;79.70;;;;;;4998701;28;20109;-86
2021/08/21 11:05:00;;;;;;;11.27;6.70;;;23.90;80.00;;;;;;4999330;28;20096;-86
2021/08/21 11:07:39;;;;;;;10.63;7.35;;;24.00;79.70;;;;;;5006504;28;20030;-83
2021/08/21 11:10:17;;;;;;;9.93;5.93;;;24.00;79.10;;;;;;5001152;28;20037;-86
2021/08/21 11:12:47;;;;;;;7.45;5.00;;;24.10;77.80;;;;;;5007473;28;20034;-80
2021/08/21 11:15:21;;;;;;;7.90;5.38;;;24.20;77.20;;;;;;5000415;28;20444;-78
2021/08/21 11:17:47;;;;;;;11.55;5.63;;;24.20;76.90;;;;;;4998774;28;20042;-83
2021/08/21 11:20:22;;;;;;;8.05;4.90;;;24.30;76.80;;;;;;5004243;28;20031;-76
2021/08/21 11:23:08;;;;;;;9.90;4.90;;;24.30;76.80;;;;;;5025084;28;20030;-81
2021/08/21 11:25:34;;;;;;;8.88;5.32;;;24.30;76.80;;;;;;5000975;28;20042;-85
2021/08/21 11:28:06;;;;;;;8.98;4.50;;;24.30;76.70;;;;;;5000632;28;20401;-85
2021/08/21 11:30:32;;;;;;;8.30;4.80;;;24.30;76.60;;;;;;5017434;28;20084;-85
2021/08/21 11:33:10;;;;;;;8.50;4.07;;;24.40;76.40;;;;;;5013478;28;20393;-85
2021/08/21 11:35:38;;;;;;;10.55;4.13;;;24.40;76.40;;;;;;4997780;28;20375;-86
2021/08/21 11:38:10;;;;;;;11.23;4.07;;;24.40;76.40;;;;;;5008327;28;20046;-80
2021/08/21 11:40:50;;;;;;;13.80;3.65;;;24.40;76.50;;;;;;5014653;28;20424;-83
2021/08/21 11:43:20;;;;;;;7.40;3.40;;;24.40;76.90;;;;;;5012201;28;20038;-83
2021/08/21 11:45:46;;;;;;;8.88;3.30;;;24.40;77.10;;;;;;5012998;28;20072;-82
2021/08/21 11:48:11;;;;;;;6.28;2.92;;;24.40;77.60;;;;;;5012656;28;20037;-87
2021/08/21 11:50:40;;;;;;;5.88;3.28;;;24.30;76.70;;;;;;5011123;28;20030;-87
2021/08/21 11:53:12;;;;;;;5.45;3.65;;;24.30;76.50;;;;;;5016438;28;20029;-85
2021/08/21 11:55:39;;;;;;;4.82;3.00;;;24.30;76.50;;;;;;5016441;28;20030;-77
2021/08/21 11:58:06;;;;;;;5.40;3.72;;;24.40;76.90;;;;;;5009522;28;20031;-78
2021/08/21 12:00:35;;;;;;;4.78;2.63;;;24.40;77.00;;;;;;5013036;28;20599;-79
2021/08/21 12:03:08;;;;;;;5.38;3.53;;;24.40;77.70;;;;;;5013306;28;20025;-78
2021/08/21 12:05:41;;;;;;;6.80;3.47;;;24.40;76.90;;;;;;5015040;28;20428;-78
2021/08/21 12:08:27;;;;;;;6.28;3.70;;;24.50;76.70;;;;;;5007761;28;20030;-90
2021/08/21 12:10:56;;;;;;;6.90;2.20;;;24.50;77.00;;;;;;5003932;28;20081;-87
2021/08/21 12:13:33;;;;;;;8.80;4.05;;;24.50;77.20;;;;;;5010194;28;20030;-80
2021/08/21 12:16:11;;;;;;;5.32;3.33;;;24.60;76.90;;;;;;5005529;28;20128;-77
2021/08/21 12:18:38;;;;;;;8.20;3.70;;;24.70;76.50;;;;;;5004342;28;20077;-84
2021/08/21 12:21:06;;;;;;;7.65;3.95;;;24.70;75.80;;;;;;5011935;28;20037;-82
2021/08/21 12:23:34;;;;;;;5.88;3.65;;;24.80;74.90;;;;;;5003845;28;20121;-77
2021/08/21 12:26:01;;;;;;;5.63;3.50;;;24.80;74.60;;;;;;5013049;28;20561;-79
2021/08/21 12:28:41;;;;;;;6.22;3.42;;;24.90;74.00;;;;;;5013211;28;20559;-79
2021/08/21 12:31:12;;;;;;;3.88;2.63;;;25.10;74.20;;;;;;5012082;28;20076;-75
2021/08/21 12:33:39;;;;;;;5.13;2.50;;;25.10;74.60;;;;;;5006208;28;20045;-81
2021/08/21 12:36:22;;;;;;;6.90;2.15;;;25.20;74.80;;;;;;5009288;28;20351;-80
2021/08/21 12:38:58;;;;;;;;;;;25.20;74.20;;;;;;4998507;28;20120;-80
2021/08/21 12:41:23;;;;;;;4.70;2.80;;;25.20;76.00;;;;;;5005288;28;19956;-78